sensor_id;sensor_type;location;lat;lon;timestamp;temperature;humidity
39503;DHT22;26970;49.900;10.774;2023-12-28T00:02:01;4.00;99.90
39503;DHT22;26970;49.900;10.774;2023-12-28T00:04:27;4.00;99.90
39503;DHT22;26970;49.900;10.774;2023-12-28T00:06:53;3.90;99.90
39503;DHT22;26970;49.900;10.774;2023-12-28T00:09:19;3.90;99.90
39503;DHT22;26970;49.900;10.774;2023-12-28T00:11:44;3.90;99.90
39503;DHT22;26970;49.900;10.774;2023-12-28T00:14:10;3.80;99.90
39503;DHT22;26970;49.900;10.774;2023-12-28T00:16:35;3.80;99.90
39503;DHT22;26970;49.900;10.774;2023-12-28T00:19:03;3.80;99.90
39503;DHT22;26970;49.900;10.774;2023-12-28T00:21:29;3.80;99.90
39503;DHT22;26970;49.900;10.774;2023-12-28T00:23:55;3.80;99.90
39503;DHT22;26970;49.900;10.774;2023-12-28T00:26:20;3.80;99.90
39503;DHT22;26970;49.900;10.774;2023-12-28T00:28:47;3.80;99.90
39503;DHT22;26970;49.900;10.774;2023-12-28T00:31:12;3.90;99.90
39503;DHT22;26970;49.900;10.774;2023-12-28T00:33:38;3.80;99.90
39503;DHT22;26970;49.900;10.774;2023-12-28T00:36:04;3.70;99.90
39503;DHT22;26970;49.900;10.774;2023-12-28T00:38:29;3.60;99.90
39503;DHT22;26970;49.900;10.774;2023-12-28T00:40:55;3.60;99.90
39503;DHT22;26970;49.900;10.774;2023-12-28T00:43:21;3.50;99.90
39503;DHT22;26970;49.900;10.774;2023-12-28T00:45:47;3.40;99.90
39503;DHT22;26970;49.900;10.774;2023-12-28T00:48:12;3.40;99.90
39503;DHT22;26970;49.900;10.774;2023-12-28T00:50:38;3.40;99.90
39503;DHT22;26970;49.900;10.774;2023-12-28T00:53:03;3.40;99.90
39503;DHT22;26970;49.900;10.774;2023-12-28T00:55:29;3.40;99.90
39503;DHT22;26970;49.900;10.774;2023-12-28T00:57:54;3.40;99.90
39503;DHT22;26970;49.900;10.774;2023-12-28T01:00:20;3.30;99.90
39503;DHT22;26970;49.900;10.774;2023-12-28T01:02:45;3.20;99.90
39503;DHT22;26970;49.900;10.774;2023-12-28T01:05:13;3.20;99.90
39503;DHT22;26970;49.900;10.774;2023-12-28T01:07:38;3.20;99.90
39503;DHT22;26970;49.900;10.774;2023-12-28T01:10:04;3.20;99.90
39503;DHT22;26970;49.900;10.774;2023-12-28T01:12:30;3.20;99.90
39503;DHT22;26970;49.900;10.774;2023-12-28T01:14:56;3.20;99.90
39503;DHT22;26970;49.900;10.774;2023-12-28T01:17:21;3.20;99.90
39503;DHT22;26970;49.900;10.774;2023-12-28T01:19:47;3.20;99.90
39503;DHT22;26970;49.900;10.774;2023-12-28T01:22:12;3.10;99.90
39503;DHT22;26970;49.900;10.774;2023-12-28T01:24:38;3.20;99.90
39503;DHT22;26970;49.900;10.774;2023-12-28T01:27:03;3.20;99.90
39503;DHT22;26970;49.900;10.774;2023-12-28T01:29:29;3.20;99.90
39503;DHT22;26970;49.900;10.774;2023-12-28T01:31:54;3.20;99.90
39503;DHT22;26970;49.900;10.774;2023-12-28T01:34:20;3.20;99.90
39503;DHT22;26970;49.900;10.774;2023-12-28T01:36:45;3.20;99.90
39503;DHT22;26970;49.900;10.774;2023-12-28T01:39:11;3.20;99.90
39503;DHT22;26970;49.900;10.774;2023-12-28T01:41:37;3.10;99.90
39503;DHT22;26970;49.900;10.774;2023-12-28T01:44:02;3.10;99.90
39503;DHT22;26970;49.900;10.774;2023-12-28T01:46:28;3.20;99.90
39503;DHT22;26970;49.900;10.774;2023-12-28T01:48:54;3.10;99.90
39503;DHT22;26970;49.900;10.774;2023-12-28T01:51:21;3.10;99.90
39503;DHT22;26970;49.900;10.774;2023-12-28T01:53:48;3.10;99.90
39503;DHT22;26970;49.900;10.774;2023-12-28T01:56:14;3.20;99.90
39503;DHT22;26970;49.900;10.774;2023-12-28T01:58:42;3.20;99.90
39503;DHT22;26970;49.900;10.774;2023-12-28T02:01:10;3.20;99.90
39503;DHT22;26970;49.900;10.774;2023-12-28T02:03:36;3.20;99.90
39503;DHT22;26970;49.900;10.774;2023-12-28T02:06:02;3.20;99.90
39503;DHT22;26970;49.900;10.774;2023-12-28T02:08:28;3.20;99.90
39503;DHT22;26970;49.900;10.774;2023-12-28T02:10:53;3.20;99.90
39503;DHT22;26970;49.900;10.774;2023-12-28T02:13:20;3.20;99.90
39503;DHT22;26970;49.900;10.774;2023-12-28T02:16:08;3.20;99.90
39503;DHT22;26970;49.900;10.774;2023-12-28T02:18:39;3.20;99.90
39503;DHT22;26970;49.900;10.774;2023-12-28T02:21:08;3.30;99.90
39503;DHT22;26970;49.900;10.774;2023-12-28T02:23:34;3.30;99.90
39503;DHT22;26970;49.900;10.774;2023-12-28T02:26:00;3.30;99.90
39503;DHT22;26970;49.900;10.774;2023-12-28T02:28:25;3.20;99.90
39503;DHT22;26970;49.900;10.774;2023-12-28T02:30:51;3.20;99.90
39503;DHT22;26970;49.900;10.774;2023-12-28T02:33:29;3.20;99.90
39503;DHT22;26970;49.900;10.774;2023-12-28T02:36:02;3.10;99.90
39503;DHT22;26970;49.900;10.774;2023-12-28T02:38:32;3.10;99.90
39503;DHT22;26970;49.900;10.774;2023-12-28T02:41:02;3.20;99.90
39503;DHT22;26970;49.900;10.774;2023-12-28T02:43:28;3.00;99.90
39503;DHT22;26970;49.900;10.774;2023-12-28T02:45:53;3.20;99.90
39503;DHT22;26970;49.900;10.774;2023-12-28T02:48:19;3.20;99.90
39503;DHT22;26970;49.900;10.774;2023-12-28T02:50:45;3.10;99.90
39503;DHT22;26970;49.900;10.774;2023-12-28T02:53:10;3.10;99.90
39503;DHT22;26970;49.900;10.774;2023-12-28T02:55:36;3.10;99.90
39503;DHT22;26970;49.900;10.774;2023-12-28T02:58:01;3.10;99.90
39503;DHT22;26970;49.900;10.774;2023-12-28T03:00:27;3.30;99.90
39503;DHT22;26970;49.900;10.774;2023-12-28T03:02:53;3.20;99.90
39503;DHT22;26970;49.900;10.774;2023-12-28T03:05:18;3.20;99.90
39503;DHT22;26970;49.900;10.774;2023-12-28T03:07:44;3.20;99.90
39503;DHT22;26970;49.900;10.774;2023-12-28T03:10:11;3.30;99.90
39503;DHT22;26970;49.900;10.774;2023-12-28T03:12:37;3.30;99.90
39503;DHT22;26970;49.900;10.774;2023-12-28T03:15:03;3.40;99.90
39503;DHT22;26970;49.900;10.774;2023-12-28T03:17:29;3.50;99.90
39503;DHT22;26970;49.900;10.774;2023-12-28T03:19:56;3.60;99.90
39503;DHT22;26970;49.900;10.774;2023-12-28T03:22:22;3.60;99.90
39503;DHT22;26970;49.900;10.774;2023-12-28T03:24:48;3.60;99.90
39503;DHT22;26970;49.900;10.774;2023-12-28T03:27:14;3.70;99.90
39503;DHT22;26970;49.900;10.774;2023-12-28T03:29:41;3.60;99.90
39503;DHT22;26970;49.900;10.774;2023-12-28T03:32:08;3.50;99.90
39503;DHT22;26970;49.900;10.774;2023-12-28T03:34:34;3.60;99.90
39503;DHT22;26970;49.900;10.774;2023-12-28T03:37:00;3.50;99.90
39503;DHT22;26970;49.900;10.774;2023-12-28T03:39:25;3.40;99.90
39503;DHT22;26970;49.900;10.774;2023-12-28T03:41:51;3.50;99.90
39503;DHT22;26970;49.900;10.774;2023-12-28T03:44:20;3.50;99.90
39503;DHT22;26970;49.900;10.774;2023-12-28T03:46:49;3.50;99.90
39503;DHT22;26970;49.900;10.774;2023-12-28T03:49:21;3.60;99.90
39503;DHT22;26970;49.900;10.774;2023-12-28T03:51:48;3.60;99.90
39503;DHT22;26970;49.900;10.774;2023-12-28T03:54:18;3.60;99.90
39503;DHT22;26970;49.900;10.774;2023-12-28T03:56:43;3.60;99.90
39503;DHT22;26970;49.900;10.774;2023-12-28T03:59:09;3.60;99.90
39503;DHT22;26970;49.900;10.774;2023-12-28T04:01:35;3.60;99.90
39503;DHT22;26970;49.900;10.774;2023-12-28T04:04:01;3.60;99.90
39503;DHT22;26970;49.900;10.774;2023-12-28T04:06:26;3.60;99.90
39503;DHT22;26970;49.900;10.774;2023-12-28T04:08:52;3.60;99.90
39503;DHT22;26970;49.900;10.774;2023-12-28T04:11:17;3.60;99.90
39503;DHT22;26970;49.900;10.774;2023-12-28T04:13:43;3.60;99.90
39503;DHT22;26970;49.900;10.774;2023-12-28T04:16:12;3.60;99.90
39503;DHT22;26970;49.900;10.774;2023-12-28T04:18:38;3.60;99.90
39503;DHT22;26970;49.900;10.774;2023-12-28T04:21:08;3.70;99.90
39503;DHT22;26970;49.900;10.774;2023-12-28T04:23:33;3.70;99.90
39503;DHT22;26970;49.900;10.774;2023-12-28T04:25:59;3.70;99.90
39503;DHT22;26970;49.900;10.774;2023-12-28T04:28:24;3.80;99.90
39503;DHT22;26970;49.900;10.774;2023-12-28T04:30:50;3.80;99.90
39503;DHT22;26970;49.900;10.774;2023-12-28T04:33:17;3.80;99.90
39503;DHT22;26970;49.900;10.774;2023-12-28T04:35:44;3.80;99.90
39503;DHT22;26970;49.900;10.774;2023-12-28T04:38:09;3.90;99.90
39503;DHT22;26970;49.900;10.774;2023-12-28T04:40:35;4.00;99.90
39503;DHT22;26970;49.900;10.774;2023-12-28T04:43:00;4.00;99.90
39503;DHT22;26970;49.900;10.774;2023-12-28T04:45:26;4.00;99.90
39503;DHT22;26970;49.900;10.774;2023-12-28T04:47:52;4.00;99.90
39503;DHT22;26970;49.900;10.774;2023-12-28T04:50:18;4.10;99.90
39503;DHT22;26970;49.900;10.774;2023-12-28T04:52:43;4.10;99.90
39503;DHT22;26970;49.900;10.774;2023-12-28T04:55:09;4.20;99.90
39503;DHT22;26970;49.900;10.774;2023-12-28T04:57:34;4.20;99.90
39503;DHT22;26970;49.900;10.774;2023-12-28T05:00:00;4.20;99.90
39503;DHT22;26970;49.900;10.774;2023-12-28T05:02:25;4.20;99.90
39503;DHT22;26970;49.900;10.774;2023-12-28T05:04:51;4.20;99.90
39503;DHT22;26970;49.900;10.774;2023-12-28T05:07:16;4.10;99.90
39503;DHT22;26970;49.900;10.774;2023-12-28T05:09:42;4.10;99.90
39503;DHT22;26970;49.900;10.774;2023-12-28T05:12:07;4.20;99.90
39503;DHT22;26970;49.900;10.774;2023-12-28T05:14:33;4.20;99.90
39503;DHT22;26970;49.900;10.774;2023-12-28T05:16:58;4.30;99.90
39503;DHT22;26970;49.900;10.774;2023-12-28T05:19:24;4.30;99.90
39503;DHT22;26970;49.900;10.774;2023-12-28T05:21:50;4.30;99.90
39503;DHT22;26970;49.900;10.774;2023-12-28T05:24:15;4.40;99.90
39503;DHT22;26970;49.900;10.774;2023-12-28T05:26:41;4.50;99.90
39503;DHT22;26970;49.900;10.774;2023-12-28T05:29:06;4.60;99.90
39503;DHT22;26970;49.900;10.774;2023-12-28T05:31:32;4.60;99.90
39503;DHT22;26970;49.900;10.774;2023-12-28T05:33:57;4.60;99.90
39503;DHT22;26970;49.900;10.774;2023-12-28T05:36:24;4.70;99.90
39503;DHT22;26970;49.900;10.774;2023-12-28T05:38:49;4.80;99.90
39503;DHT22;26970;49.900;10.774;2023-12-28T05:41:15;4.90;99.90
39503;DHT22;26970;49.900;10.774;2023-12-28T05:43:41;5.00;99.90
39503;DHT22;26970;49.900;10.774;2023-12-28T05:46:06;5.00;99.90
39503;DHT22;26970;49.900;10.774;2023-12-28T05:48:32;5.10;99.90
39503;DHT22;26970;49.900;10.774;2023-12-28T05:50:57;5.20;99.90
39503;DHT22;26970;49.900;10.774;2023-12-28T05:53:26;5.20;99.90
39503;DHT22;26970;49.900;10.774;2023-12-28T05:55:52;5.20;99.90
39503;DHT22;26970;49.900;10.774;2023-12-28T05:58:17;5.20;99.90
39503;DHT22;26970;49.900;10.774;2023-12-28T06:00:43;5.30;99.90
39503;DHT22;26970;49.900;10.774;2023-12-28T06:03:09;5.40;99.90
39503;DHT22;26970;49.900;10.774;2023-12-28T06:05:34;5.40;99.90
39503;DHT22;26970;49.900;10.774;2023-12-28T06:08:00;5.40;99.90
39503;DHT22;26970;49.900;10.774;2023-12-28T06:10:25;5.50;99.90
39503;DHT22;26970;49.900;10.774;2023-12-28T06:12:51;5.60;99.90
39503;DHT22;26970;49.900;10.774;2023-12-28T06:15:16;5.70;99.90
39503;DHT22;26970;49.900;10.774;2023-12-28T06:17:42;5.80;99.90
39503;DHT22;26970;49.900;10.774;2023-12-28T06:20:08;5.90;99.90
39503;DHT22;26970;49.900;10.774;2023-12-28T06:22:37;6.00;99.90
39503;DHT22;26970;49.900;10.774;2023-12-28T06:25:03;6.10;99.90
39503;DHT22;26970;49.900;10.774;2023-12-28T06:27:29;6.20;99.90
39503;DHT22;26970;49.900;10.774;2023-12-28T06:29:55;6.40;99.90
39503;DHT22;26970;49.900;10.774;2023-12-28T06:32:21;6.50;99.90
39503;DHT22;26970;49.900;10.774;2023-12-28T06:34:46;6.60;99.90
39503;DHT22;26970;49.900;10.774;2023-12-28T06:37:12;6.80;99.90
39503;DHT22;26970;49.900;10.774;2023-12-28T06:39:38;7.00;99.90
39503;DHT22;26970;49.900;10.774;2023-12-28T06:42:04;7.20;99.90
39503;DHT22;26970;49.900;10.774;2023-12-28T06:44:29;7.30;99.90
39503;DHT22;26970;49.900;10.774;2023-12-28T06:46:55;7.40;99.90
39503;DHT22;26970;49.900;10.774;2023-12-28T06:49:21;7.40;99.90
39503;DHT22;26970;49.900;10.774;2023-12-28T06:51:46;7.50;99.90
39503;DHT22;26970;49.900;10.774;2023-12-28T06:54:12;7.50;99.90
39503;DHT22;26970;49.900;10.774;2023-12-28T06:56:38;7.60;99.90
39503;DHT22;26970;49.900;10.774;2023-12-28T06:59:03;7.60;99.90
39503;DHT22;26970;49.900;10.774;2023-12-28T07:01:29;7.60;99.90
39503;DHT22;26970;49.900;10.774;2023-12-28T07:03:54;7.60;99.90
39503;DHT22;26970;49.900;10.774;2023-12-28T07:06:20;7.60;99.90
39503;DHT22;26970;49.900;10.774;2023-12-28T07:08:45;7.60;99.90
39503;DHT22;26970;49.900;10.774;2023-12-28T07:11:11;7.70;99.90
39503;DHT22;26970;49.900;10.774;2023-12-28T07:13:37;7.70;99.90
39503;DHT22;26970;49.900;10.774;2023-12-28T07:16:02;7.70;99.90
39503;DHT22;26970;49.900;10.774;2023-12-28T07:18:28;7.70;99.90
39503;DHT22;26970;49.900;10.774;2023-12-28T07:20:54;7.80;99.90
39503;DHT22;26970;49.900;10.774;2023-12-28T07:23:19;7.70;99.90
39503;DHT22;26970;49.900;10.774;2023-12-28T07:25:45;7.70;99.90
39503;DHT22;26970;49.900;10.774;2023-12-28T07:28:11;7.70;99.90
39503;DHT22;26970;49.900;10.774;2023-12-28T07:30:37;7.70;99.90
39503;DHT22;26970;49.900;10.774;2023-12-28T07:33:03;7.80;99.90
39503;DHT22;26970;49.900;10.774;2023-12-28T07:35:29;7.80;99.90
39503;DHT22;26970;49.900;10.774;2023-12-28T07:37:54;7.80;99.90
39503;DHT22;26970;49.900;10.774;2023-12-28T07:40:20;7.80;99.90
39503;DHT22;26970;49.900;10.774;2023-12-28T07:42:46;7.80;99.90
39503;DHT22;26970;49.900;10.774;2023-12-28T07:45:11;7.80;99.90
39503;DHT22;26970;49.900;10.774;2023-12-28T07:47:37;7.70;99.90
39503;DHT22;26970;49.900;10.774;2023-12-28T07:50:02;7.70;99.90
39503;DHT22;26970;49.900;10.774;2023-12-28T07:52:29;7.70;99.90
39503;DHT22;26970;49.900;10.774;2023-12-28T07:54:54;7.70;99.90
39503;DHT22;26970;49.900;10.774;2023-12-28T07:57:21;7.60;99.90
39503;DHT22;26970;49.900;10.774;2023-12-28T07:59:46;7.60;99.90
39503;DHT22;26970;49.900;10.774;2023-12-28T08:02:12;7.60;99.90
39503;DHT22;26970;49.900;10.774;2023-12-28T08:04:37;7.70;99.90
39503;DHT22;26970;49.900;10.774;2023-12-28T08:07:03;7.80;99.90
39503;DHT22;26970;49.900;10.774;2023-12-28T08:09:29;7.80;99.90
39503;DHT22;26970;49.900;10.774;2023-12-28T08:11:55;7.80;99.90
39503;DHT22;26970;49.900;10.774;2023-12-28T08:14:21;7.80;99.90
39503;DHT22;26970;49.900;10.774;2023-12-28T08:16:46;7.80;99.90
39503;DHT22;26970;49.900;10.774;2023-12-28T08:19:12;7.80;99.90
39503;DHT22;26970;49.900;10.774;2023-12-28T08:21:38;7.80;99.90
39503;DHT22;26970;49.900;10.774;2023-12-28T08:24:04;7.90;99.90
39503;DHT22;26970;49.900;10.774;2023-12-28T08:26:29;7.90;99.90
39503;DHT22;26970;49.900;10.774;2023-12-28T08:28:55;7.90;99.90
39503;DHT22;26970;49.900;10.774;2023-12-28T08:31:21;7.90;99.90
39503;DHT22;26970;49.900;10.774;2023-12-28T08:33:46;7.90;99.90
39503;DHT22;26970;49.900;10.774;2023-12-28T08:36:12;7.90;99.90
39503;DHT22;26970;49.900;10.774;2023-12-28T08:38:38;8.00;99.90
39503;DHT22;26970;49.900;10.774;2023-12-28T08:41:04;8.00;99.90
39503;DHT22;26970;49.900;10.774;2023-12-28T08:43:34;8.00;99.90
39503;DHT22;26970;49.900;10.774;2023-12-28T08:46:00;8.00;99.90
39503;DHT22;26970;49.900;10.774;2023-12-28T08:48:26;8.00;99.90
39503;DHT22;26970;49.900;10.774;2023-12-28T08:50:51;8.00;99.90
39503;DHT22;26970;49.900;10.774;2023-12-28T08:53:17;8.00;99.90
39503;DHT22;26970;49.900;10.774;2023-12-28T08:55:42;8.00;99.90
39503;DHT22;26970;49.900;10.774;2023-12-28T08:58:08;8.10;99.90
39503;DHT22;26970;49.900;10.774;2023-12-28T09:00:33;8.10;99.90
39503;DHT22;26970;49.900;10.774;2023-12-28T09:02:59;8.00;99.90
39503;DHT22;26970;49.900;10.774;2023-12-28T09:05:24;8.10;99.90
39503;DHT22;26970;49.900;10.774;2023-12-28T09:07:50;8.10;99.90
39503;DHT22;26970;49.900;10.774;2023-12-28T09:10:15;8.10;99.90
39503;DHT22;26970;49.900;10.774;2023-12-28T09:12:41;8.10;99.90
39503;DHT22;26970;49.900;10.774;2023-12-28T09:15:07;8.10;99.90
39503;DHT22;26970;49.900;10.774;2023-12-28T09:17:34;8.10;99.90
39503;DHT22;26970;49.900;10.774;2023-12-28T09:20:00;8.10;99.90
39503;DHT22;26970;49.900;10.774;2023-12-28T09:22:26;8.10;99.90
39503;DHT22;26970;49.900;10.774;2023-12-28T09:24:52;8.10;99.90
39503;DHT22;26970;49.900;10.774;2023-12-28T09:27:18;8.10;99.90
39503;DHT22;26970;49.900;10.774;2023-12-28T09:29:43;8.20;99.90
39503;DHT22;26970;49.900;10.774;2023-12-28T09:32:09;8.20;99.90
39503;DHT22;26970;49.900;10.774;2023-12-28T09:34:35;8.10;99.90
39503;DHT22;26970;49.900;10.774;2023-12-28T09:37:00;8.10;99.90
39503;DHT22;26970;49.900;10.774;2023-12-28T09:39:26;8.10;99.90
39503;DHT22;26970;49.900;10.774;2023-12-28T09:42:01;8.20;99.90
39503;DHT22;26970;49.900;10.774;2023-12-28T09:44:30;8.10;99.90
39503;DHT22;26970;49.900;10.774;2023-12-28T09:46:56;8.10;99.90
39503;DHT22;26970;49.900;10.774;2023-12-28T09:49:23;8.10;99.90
39503;DHT22;26970;49.900;10.774;2023-12-28T09:51:49;8.10;99.90
39503;DHT22;26970;49.900;10.774;2023-12-28T09:54:14;8.10;99.90
39503;DHT22;26970;49.900;10.774;2023-12-28T09:56:40;8.20;99.90
39503;DHT22;26970;49.900;10.774;2023-12-28T09:59:10;8.20;99.90
39503;DHT22;26970;49.900;10.774;2023-12-28T10:01:36;8.20;99.90
39503;DHT22;26970;49.900;10.774;2023-12-28T10:04:02;8.10;99.90
39503;DHT22;26970;49.900;10.774;2023-12-28T10:06:30;8.10;99.90
39503;DHT22;26970;49.900;10.774;2023-12-28T10:08:55;8.20;99.90
39503;DHT22;26970;49.900;10.774;2023-12-28T10:11:21;8.20;99.90
39503;DHT22;26970;49.900;10.774;2023-12-28T10:13:49;8.20;99.90
39503;DHT22;26970;49.900;10.774;2023-12-28T10:16:15;8.20;99.90
39503;DHT22;26970;49.900;10.774;2023-12-28T10:18:42;8.20;99.90
39503;DHT22;26970;49.900;10.774;2023-12-28T10:21:11;8.20;99.90
39503;DHT22;26970;49.900;10.774;2023-12-28T10:23:37;8.20;99.90
39503;DHT22;26970;49.900;10.774;2023-12-28T10:26:04;8.20;99.90
39503;DHT22;26970;49.900;10.774;2023-12-28T10:28:34;8.20;99.90
39503;DHT22;26970;49.900;10.774;2023-12-28T10:31:00;8.20;99.90
39503;DHT22;26970;49.900;10.774;2023-12-28T10:33:26;8.30;99.90
39503;DHT22;26970;49.900;10.774;2023-12-28T10:35:52;8.20;99.90
39503;DHT22;26970;49.900;10.774;2023-12-28T10:38:18;8.20;99.90
39503;DHT22;26970;49.900;10.774;2023-12-28T10:40:45;8.20;99.90
39503;DHT22;26970;49.900;10.774;2023-12-28T10:43:14;8.30;99.90
39503;DHT22;26970;49.900;10.774;2023-12-28T10:45:40;8.20;99.90
39503;DHT22;26970;49.900;10.774;2023-12-28T10:48:10;8.20;99.90
39503;DHT22;26970;49.900;10.774;2023-12-28T10:50:40;8.20;99.90
39503;DHT22;26970;49.900;10.774;2023-12-28T10:53:28;8.20;99.90
39503;DHT22;26970;49.900;10.774;2023-12-28T10:59:26;8.30;99.90
39503;DHT22;26970;49.900;10.774;2023-12-28T11:01:55;8.30;99.90
39503;DHT22;26970;49.900;10.774;2023-12-28T11:04:44;8.30;99.90
39503;DHT22;26970;49.900;10.774;2023-12-28T11:07:14;8.30;99.90
39503;DHT22;26970;49.900;10.774;2023-12-28T11:09:41;8.30;99.90
39503;DHT22;26970;49.900;10.774;2023-12-28T11:12:08;8.30;99.90
39503;DHT22;26970;49.900;10.774;2023-12-28T11:14:36;8.30;99.90
39503;DHT22;26970;49.900;10.774;2023-12-28T11:17:03;8.30;99.90
39503;DHT22;26970;49.900;10.774;2023-12-28T11:19:30;8.30;99.90
39503;DHT22;26970;49.900;10.774;2023-12-28T11:21:57;8.30;99.90
39503;DHT22;26970;49.900;10.774;2023-12-28T11:24:28;8.30;99.90
39503;DHT22;26970;49.900;10.774;2023-12-28T11:26:54;8.30;99.90
39503;DHT22;26970;49.900;10.774;2023-12-28T11:29:20;8.30;99.90
39503;DHT22;26970;49.900;10.774;2023-12-28T11:31:52;8.30;99.90
39503;DHT22;26970;49.900;10.774;2023-12-28T11:34:18;8.30;99.90
39503;DHT22;26970;49.900;10.774;2023-12-28T11:36:48;8.40;99.90
39503;DHT22;26970;49.900;10.774;2023-12-28T11:39:29;8.40;99.90
39503;DHT22;26970;49.900;10.774;2023-12-28T11:42:00;8.40;99.90
39503;DHT22;26970;49.900;10.774;2023-12-28T11:44:28;8.40;99.90
39503;DHT22;26970;49.900;10.774;2023-12-28T11:46:54;8.40;99.90
39503;DHT22;26970;49.900;10.774;2023-12-28T11:49:25;8.40;99.90
39503;DHT22;26970;49.900;10.774;2023-12-28T11:51:57;8.40;99.90
39503;DHT22;26970;49.900;10.774;2023-12-28T11:54:24;8.50;99.90
39503;DHT22;26970;49.900;10.774;2023-12-28T11:56:51;8.50;99.90
39503;DHT22;26970;49.900;10.774;2023-12-28T11:59:17;8.50;99.90
39503;DHT22;26970;49.900;10.774;2023-12-28T12:01:43;8.50;99.90
39503;DHT22;26970;49.900;10.774;2023-12-28T12:04:08;8.50;99.90
39503;DHT22;26970;49.900;10.774;2023-12-28T12:06:34;8.50;99.90
39503;DHT22;26970;49.900;10.774;2023-12-28T12:09:00;8.60;99.90
39503;DHT22;26970;49.900;10.774;2023-12-28T12:11:25;8.60;99.90
39503;DHT22;26970;49.900;10.774;2023-12-28T12:13:51;8.70;99.90
39503;DHT22;26970;49.900;10.774;2023-12-28T12:16:17;8.70;99.90
39503;DHT22;26970;49.900;10.774;2023-12-28T12:18:43;8.70;99.90
39503;DHT22;26970;49.900;10.774;2023-12-28T12:21:08;8.60;99.90
39503;DHT22;26970;49.900;10.774;2023-12-28T12:23:34;8.70;99.90
39503;DHT22;26970;49.900;10.774;2023-12-28T12:26:00;8.70;99.90
39503;DHT22;26970;49.900;10.774;2023-12-28T12:28:25;8.60;99.90
39503;DHT22;26970;49.900;10.774;2023-12-28T12:30:54;8.60;99.90
39503;DHT22;26970;49.900;10.774;2023-12-28T12:33:21;8.60;99.90
39503;DHT22;26970;49.900;10.774;2023-12-28T12:35:47;8.60;99.90
39503;DHT22;26970;49.900;10.774;2023-12-28T12:38:12;8.70;99.90
39503;DHT22;26970;49.900;10.774;2023-12-28T12:40:38;8.70;99.90
39503;DHT22;26970;49.900;10.774;2023-12-28T12:43:06;8.70;99.90
39503;DHT22;26970;49.900;10.774;2023-12-28T12:45:34;8.70;99.90
39503;DHT22;26970;49.900;10.774;2023-12-28T12:48:05;8.70;99.90
39503;DHT22;26970;49.900;10.774;2023-12-28T12:50:33;8.70;99.90
39503;DHT22;26970;49.900;10.774;2023-12-28T12:53:05;8.70;99.90
39503;DHT22;26970;49.900;10.774;2023-12-28T12:55:30;8.70;99.90
39503;DHT22;26970;49.900;10.774;2023-12-28T12:57:56;8.80;99.90
39503;DHT22;26970;49.900;10.774;2023-12-28T13:00:22;8.70;99.90
39503;DHT22;26970;49.900;10.774;2023-12-28T13:02:50;8.70;99.90
39503;DHT22;26970;49.900;10.774;2023-12-28T13:05:21;8.70;99.90
39503;DHT22;26970;49.900;10.774;2023-12-28T13:07:47;8.70;99.90
39503;DHT22;26970;49.900;10.774;2023-12-28T13:10:12;8.70;99.90
39503;DHT22;26970;49.900;10.774;2023-12-28T13:12:38;8.70;99.90
39503;DHT22;26970;49.900;10.774;2023-12-28T13:15:04;8.80;99.90
39503;DHT22;26970;49.900;10.774;2023-12-28T13:17:31;8.80;99.90
39503;DHT22;26970;49.900;10.774;2023-12-28T13:19:56;8.80;99.90
39503;DHT22;26970;49.900;10.774;2023-12-28T13:22:22;8.90;99.90
39503;DHT22;26970;49.900;10.774;2023-12-28T13:24:47;8.80;99.90
39503;DHT22;26970;49.900;10.774;2023-12-28T13:27:13;8.80;99.90
39503;DHT22;26970;49.900;10.774;2023-12-28T13:29:39;8.80;99.90
39503;DHT22;26970;49.900;10.774;2023-12-28T13:32:05;8.80;99.90
39503;DHT22;26970;49.900;10.774;2023-12-28T13:34:31;8.80;99.90
39503;DHT22;26970;49.900;10.774;2023-12-28T13:36:57;8.80;99.90
39503;DHT22;26970;49.900;10.774;2023-12-28T13:39:22;8.80;99.90
39503;DHT22;26970;49.900;10.774;2023-12-28T13:41:48;8.80;99.90
39503;DHT22;26970;49.900;10.774;2023-12-28T13:44:14;9.00;99.90
39503;DHT22;26970;49.900;10.774;2023-12-28T13:46:39;8.90;99.90
39503;DHT22;26970;49.900;10.774;2023-12-28T13:49:05;9.00;99.90
39503;DHT22;26970;49.900;10.774;2023-12-28T13:51:32;9.00;99.90
39503;DHT22;26970;49.900;10.774;2023-12-28T13:53:57;9.00;99.90
39503;DHT22;26970;49.900;10.774;2023-12-28T13:56:23;9.00;99.90
39503;DHT22;26970;49.900;10.774;2023-12-28T13:58:48;9.00;99.90
39503;DHT22;26970;49.900;10.774;2023-12-28T14:01:14;9.00;99.90
39503;DHT22;26970;49.900;10.774;2023-12-28T14:03:39;8.90;99.90
39503;DHT22;26970;49.900;10.774;2023-12-28T14:06:05;8.90;99.90
39503;DHT22;26970;49.900;10.774;2023-12-28T14:08:31;8.90;99.90
39503;DHT22;26970;49.900;10.774;2023-12-28T14:10:56;8.80;99.90
39503;DHT22;26970;49.900;10.774;2023-12-28T14:13:22;8.80;99.90
39503;DHT22;26970;49.900;10.774;2023-12-28T14:15:48;8.80;99.90
39503;DHT22;26970;49.900;10.774;2023-12-28T14:18:13;8.80;99.90
39503;DHT22;26970;49.900;10.774;2023-12-28T14:20:39;8.80;99.90
39503;DHT22;26970;49.900;10.774;2023-12-28T14:23:05;8.70;99.90
39503;DHT22;26970;49.900;10.774;2023-12-28T14:25:30;8.60;99.90
39503;DHT22;26970;49.900;10.774;2023-12-28T14:27:56;8.60;99.90
39503;DHT22;26970;49.900;10.774;2023-12-28T14:30:22;8.50;99.90
39503;DHT22;26970;49.900;10.774;2023-12-28T14:32:48;8.50;99.90
39503;DHT22;26970;49.900;10.774;2023-12-28T14:35:14;8.60;99.90
39503;DHT22;26970;49.900;10.774;2023-12-28T14:37:46;8.50;99.90
39503;DHT22;26970;49.900;10.774;2023-12-28T14:40:11;8.50;99.90
39503;DHT22;26970;49.900;10.774;2023-12-28T14:42:38;8.50;99.90
39503;DHT22;26970;49.900;10.774;2023-12-28T14:45:04;8.50;99.90
39503;DHT22;26970;49.900;10.774;2023-12-28T14:47:30;8.40;99.90
39503;DHT22;26970;49.900;10.774;2023-12-28T14:49:55;8.40;99.90
39503;DHT22;26970;49.900;10.774;2023-12-28T14:52:24;8.40;99.90
39503;DHT22;26970;49.900;10.774;2023-12-28T14:54:49;8.40;99.90
39503;DHT22;26970;49.900;10.774;2023-12-28T14:57:20;8.40;99.90
39503;DHT22;26970;49.900;10.774;2023-12-28T14:59:45;8.40;99.90
39503;DHT22;26970;49.900;10.774;2023-12-28T15:02:11;8.40;99.90
39503;DHT22;26970;49.900;10.774;2023-12-28T15:04:36;8.30;99.90
39503;DHT22;26970;49.900;10.774;2023-12-28T15:07:03;8.30;99.90
39503;DHT22;26970;49.900;10.774;2023-12-28T15:09:29;8.40;99.90
39503;DHT22;26970;49.900;10.774;2023-12-28T15:11:55;8.30;99.90
39503;DHT22;26970;49.900;10.774;2023-12-28T15:14:21;8.30;99.90
39503;DHT22;26970;49.900;10.774;2023-12-28T15:16:47;8.40;99.90
39503;DHT22;26970;49.900;10.774;2023-12-28T15:19:13;8.40;99.90
39503;DHT22;26970;49.900;10.774;2023-12-28T15:21:39;8.40;99.90
39503;DHT22;26970;49.900;10.774;2023-12-28T15:24:05;8.40;99.90
39503;DHT22;26970;49.900;10.774;2023-12-28T15:26:31;8.40;99.90
39503;DHT22;26970;49.900;10.774;2023-12-28T15:28:56;8.40;99.90